Geneva, Alabama
Current Conditions -  °F | °C
As of 1:55 PM on Thursday 30 Oct 2014 (Local Time) from KEDN Reporting Station
Clear Clear  
Wind Chill: 68°   Ceiling: Unl
Heat Index: 68°   Visibility: 10mi
Dew Point: 37°   Wind: 9mph
Humidity: 33%   Direction: 20°NNE
Pressure: 30"   Gusts: NA
Location:  31.03°N, 85.86°W
Report Text: KEDN 301855Z AUTO 02008KT 10SM CLR 20/03 A3000 RMK AO2
Loading
Personal Weather Stations






























Interactive Weather Map
Tropical Storm Tracking
New forecast layout! Learn more

10-Day Weather Forecast

Advertisements
Track Severe Weather on mobile